sensor_id;sensor_type;location;lat;lon;timestamp;temperature;humidity
7004;DHT22;3542;48.812;9.146;2023-03-26T00:00:40;7.60;99.90
7004;DHT22;3542;48.812;9.146;2023-03-26T00:03:08;7.50;99.90
7004;DHT22;3542;48.812;9.146;2023-03-26T00:05:36;7.50;99.90
7004;DHT22;3542;48.812;9.146;2023-03-26T00:08:02;7.50;99.90
7004;DHT22;3542;48.812;9.146;2023-03-26T00:10:28;7.50;99.90
7004;DHT22;3542;48.812;9.146;2023-03-26T00:12:53;7.40;99.90
7004;DHT22;3542;48.812;9.146;2023-03-26T00:15:19;7.30;99.90
7004;DHT22;3542;48.812;9.146;2023-03-26T00:17:44;7.30;99.90
7004;DHT22;3542;48.812;9.146;2023-03-26T00:20:13;7.30;99.90
7004;DHT22;3542;48.812;9.146;2023-03-26T00:22:39;7.20;99.90
7004;DHT22;3542;48.812;9.146;2023-03-26T00:25:06;7.20;99.90
7004;DHT22;3542;48.812;9.146;2023-03-26T00:27:32;7.20;99.90
7004;DHT22;3542;48.812;9.146;2023-03-26T00:29:58;7.20;99.90
7004;DHT22;3542;48.812;9.146;2023-03-26T00:32:26;7.20;99.90
7004;DHT22;3542;48.812;9.146;2023-03-26T00:34:53;7.10;99.90
7004;DHT22;3542;48.812;9.146;2023-03-26T00:37:20;7.10;99.90
7004;DHT22;3542;48.812;9.146;2023-03-26T00:39:54;7.20;99.90
7004;DHT22;3542;48.812;9.146;2023-03-26T00:42:24;7.20;99.90
7004;DHT22;3542;48.812;9.146;2023-03-26T00:44:49;7.10;99.90
7004;DHT22;3542;48.812;9.146;2023-03-26T00:47:19;7.20;99.90
7004;DHT22;3542;48.812;9.146;2023-03-26T00:49:45;7.10;99.90
7004;DHT22;3542;48.812;9.146;2023-03-26T00:52:13;7.00;99.90
7004;DHT22;3542;48.812;9.146;2023-03-26T00:54:52;7.00;99.90
7004;DHT22;3542;48.812;9.146;2023-03-26T00:57:18;7.10;99.90
7004;DHT22;3542;48.812;9.146;2023-03-26T00:59:49;7.10;99.90
7004;DHT22;3542;48.812;9.146;2023-03-26T01:02:18;7.20;99.90
7004;DHT22;3542;48.812;9.146;2023-03-26T01:04:49;7.20;99.90
7004;DHT22;3542;48.812;9.146;2023-03-26T01:07:21;7.20;99.90
7004;DHT22;3542;48.812;9.146;2023-03-26T01:09:54;7.30;99.90
7004;DHT22;3542;48.812;9.146;2023-03-26T01:12:23;7.30;99.90
7004;DHT22;3542;48.812;9.146;2023-03-26T01:14:51;7.40;99.90
7004;DHT22;3542;48.812;9.146;2023-03-26T01:17:17;7.40;99.90
7004;DHT22;3542;48.812;9.146;2023-03-26T01:20:19;7.50;99.90
7004;DHT22;3542;48.812;9.146;2023-03-26T01:22:53;7.60;99.90
7004;DHT22;3542;48.812;9.146;2023-03-26T01:25:22;7.60;99.90
7004;DHT22;3542;48.812;9.146;2023-03-26T01:27:51;7.60;99.90
7004;DHT22;3542;48.812;9.146;2023-03-26T01:30:34;7.60;99.90
7004;DHT22;3542;48.812;9.146;2023-03-26T01:33:26;7.60;99.90
7004;DHT22;3542;48.812;9.146;2023-03-26T01:36:09;7.70;99.90
7004;DHT22;3542;48.812;9.146;2023-03-26T01:38:56;7.70;99.90
7004;DHT22;3542;48.812;9.146;2023-03-26T01:44:15;7.70;99.90
7004;DHT22;3542;48.812;9.146;2023-03-26T01:46:42;7.70;99.90
7004;DHT22;3542;48.812;9.146;2023-03-26T01:49:09;7.80;99.90
7004;DHT22;3542;48.812;9.146;2023-03-26T01:51:38;7.80;99.90
7004;DHT22;3542;48.812;9.146;2023-03-26T01:54:07;7.80;99.90
7004;DHT22;3542;48.812;9.146;2023-03-26T01:59:48;7.80;99.90
7004;DHT22;3542;48.812;9.146;2023-03-26T02:05:14;7.90;99.90
7004;DHT22;3542;48.812;9.146;2023-03-26T02:08:24;7.90;99.90
7004;DHT22;3542;48.812;9.146;2023-03-26T02:10:54;7.90;99.90
7004;DHT22;3542;48.812;9.146;2023-03-26T02:13:22;7.90;99.90
7004;DHT22;3542;48.812;9.146;2023-03-26T02:16:00;7.80;99.90
7004;DHT22;3542;48.812;9.146;2023-03-26T02:18:27;7.80;99.90
7004;DHT22;3542;48.812;9.146;2023-03-26T02:21:05;7.80;99.90
7004;DHT22;3542;48.812;9.146;2023-03-26T02:23:34;7.80;99.90
7004;DHT22;3542;48.812;9.146;2023-03-26T02:26:07;7.90;99.90
7004;DHT22;3542;48.812;9.146;2023-03-26T02:28:33;7.90;99.90
7004;DHT22;3542;48.812;9.146;2023-03-26T02:30:58;7.90;99.90
7004;DHT22;3542;48.812;9.146;2023-03-26T02:33:30;7.90;99.90
7004;DHT22;3542;48.812;9.146;2023-03-26T02:35:56;7.90;99.90
7004;DHT22;3542;48.812;9.146;2023-03-26T02:38:24;7.90;99.90
7004;DHT22;3542;48.812;9.146;2023-03-26T02:40:51;7.90;99.90
7004;DHT22;3542;48.812;9.146;2023-03-26T02:43:17;7.80;99.90
7004;DHT22;3542;48.812;9.146;2023-03-26T02:45:43;7.80;99.90
7004;DHT22;3542;48.812;9.146;2023-03-26T02:48:08;7.80;99.90
7004;DHT22;3542;48.812;9.146;2023-03-26T02:50:34;7.80;99.90
7004;DHT22;3542;48.812;9.146;2023-03-26T02:53:01;7.80;99.90
7004;DHT22;3542;48.812;9.146;2023-03-26T02:55:27;7.80;99.90
7004;DHT22;3542;48.812;9.146;2023-03-26T02:57:52;7.80;99.90
7004;DHT22;3542;48.812;9.146;2023-03-26T03:00:18;7.70;99.90
7004;DHT22;3542;48.812;9.146;2023-03-26T03:02:46;7.70;99.90
7004;DHT22;3542;48.812;9.146;2023-03-26T03:05:12;7.80;99.90
7004;DHT22;3542;48.812;9.146;2023-03-26T03:07:38;7.80;99.90
7004;DHT22;3542;48.812;9.146;2023-03-26T03:10:05;7.80;99.90
7004;DHT22;3542;48.812;9.146;2023-03-26T03:12:34;7.80;99.90
7004;DHT22;3542;48.812;9.146;2023-03-26T03:15:00;7.80;99.90
7004;DHT22;3542;48.812;9.146;2023-03-26T03:17:26;7.80;99.90
7004;DHT22;3542;48.812;9.146;2023-03-26T03:19:51;7.80;99.90
7004;DHT22;3542;48.812;9.146;2023-03-26T03:22:17;7.80;99.90
7004;DHT22;3542;48.812;9.146;2023-03-26T03:24:44;7.80;99.90
7004;DHT22;3542;48.812;9.146;2023-03-26T03:27:10;7.90;99.90
7004;DHT22;3542;48.812;9.146;2023-03-26T03:29:37;7.90;99.90
7004;DHT22;3542;48.812;9.146;2023-03-26T03:32:03;7.90;99.90
7004;DHT22;3542;48.812;9.146;2023-03-26T03:34:28;7.90;99.90
7004;DHT22;3542;48.812;9.146;2023-03-26T03:36:54;7.90;99.90
7004;DHT22;3542;48.812;9.146;2023-03-26T03:39:19;7.90;99.90
7004;DHT22;3542;48.812;9.146;2023-03-26T03:41:45;7.90;99.90
7004;DHT22;3542;48.812;9.146;2023-03-26T03:44:11;7.90;99.90
7004;DHT22;3542;48.812;9.146;2023-03-26T03:46:36;7.90;99.90
7004;DHT22;3542;48.812;9.146;2023-03-26T03:49:02;7.90;99.90
7004;DHT22;3542;48.812;9.146;2023-03-26T03:51:28;7.90;99.90
7004;DHT22;3542;48.812;9.146;2023-03-26T03:53:53;7.90;99.90
7004;DHT22;3542;48.812;9.146;2023-03-26T03:56:20;8.00;99.90
7004;DHT22;3542;48.812;9.146;2023-03-26T03:58:49;8.00;99.90
7004;DHT22;3542;48.812;9.146;2023-03-26T04:01:15;8.10;99.90
7004;DHT22;3542;48.812;9.146;2023-03-26T04:03:41;8.10;99.90
7004;DHT22;3542;48.812;9.146;2023-03-26T04:06:11;8.10;99.90
7004;DHT22;3542;48.812;9.146;2023-03-26T04:08:36;8.10;99.90
7004;DHT22;3542;48.812;9.146;2023-03-26T04:11:02;8.10;99.90
7004;DHT22;3542;48.812;9.146;2023-03-26T04:13:28;8.10;99.90
7004;DHT22;3542;48.812;9.146;2023-03-26T04:15:54;8.10;99.90
7004;DHT22;3542;48.812;9.146;2023-03-26T04:18:20;8.10;99.90
7004;DHT22;3542;48.812;9.146;2023-03-26T04:20:46;8.10;99.90
7004;DHT22;3542;48.812;9.146;2023-03-26T04:23:17;8.10;99.90
7004;DHT22;3542;48.812;9.146;2023-03-26T04:25:51;8.20;99.90
7004;DHT22;3542;48.812;9.146;2023-03-26T04:28:41;8.10;99.90
7004;DHT22;3542;48.812;9.146;2023-03-26T04:31:14;8.20;99.90
7004;DHT22;3542;48.812;9.146;2023-03-26T04:33:44;8.20;99.90
7004;DHT22;3542;48.812;9.146;2023-03-26T04:36:14;8.20;99.90
7004;DHT22;3542;48.812;9.146;2023-03-26T04:38:45;8.30;99.90
7004;DHT22;3542;48.812;9.146;2023-03-26T04:41:14;8.20;99.90
7004;DHT22;3542;48.812;9.146;2023-03-26T04:43:40;8.20;99.90
7004;DHT22;3542;48.812;9.146;2023-03-26T04:46:12;8.20;99.90
7004;DHT22;3542;48.812;9.146;2023-03-26T04:48:37;8.30;99.90
7004;DHT22;3542;48.812;9.146;2023-03-26T04:51:04;8.30;99.90
7004;DHT22;3542;48.812;9.146;2023-03-26T04:53:31;8.30;99.90
7004;DHT22;3542;48.812;9.146;2023-03-26T04:56:04;8.30;99.90
7004;DHT22;3542;48.812;9.146;2023-03-26T04:58:30;8.30;99.90
7004;DHT22;3542;48.812;9.146;2023-03-26T05:00:59;8.30;99.90
7004;DHT22;3542;48.812;9.146;2023-03-26T05:03:29;8.30;99.90
7004;DHT22;3542;48.812;9.146;2023-03-26T05:05:58;8.30;99.90
7004;DHT22;3542;48.812;9.146;2023-03-26T05:08:25;8.40;99.90
7004;DHT22;3542;48.812;9.146;2023-03-26T05:10:53;8.40;99.90
7004;DHT22;3542;48.812;9.146;2023-03-26T05:13:19;8.40;99.90
7004;DHT22;3542;48.812;9.146;2023-03-26T05:15:45;8.40;99.90
7004;DHT22;3542;48.812;9.146;2023-03-26T05:18:10;8.40;99.90
7004;DHT22;3542;48.812;9.146;2023-03-26T05:20:36;8.50;99.90
7004;DHT22;3542;48.812;9.146;2023-03-26T05:23:02;8.50;99.90
7004;DHT22;3542;48.812;9.146;2023-03-26T05:25:30;8.50;99.90
7004;DHT22;3542;48.812;9.146;2023-03-26T05:27:56;8.50;99.90
7004;DHT22;3542;48.812;9.146;2023-03-26T05:30:22;8.50;99.90
7004;DHT22;3542;48.812;9.146;2023-03-26T05:32:47;8.50;99.90
7004;DHT22;3542;48.812;9.146;2023-03-26T05:35:14;8.50;99.90
7004;DHT22;3542;48.812;9.146;2023-03-26T05:37:42;8.50;99.90
7004;DHT22;3542;48.812;9.146;2023-03-26T05:40:09;8.60;99.90
7004;DHT22;3542;48.812;9.146;2023-03-26T05:42:37;8.60;99.90
7004;DHT22;3542;48.812;9.146;2023-03-26T05:45:05;8.60;99.90
7004;DHT22;3542;48.812;9.146;2023-03-26T05:47:31;8.60;99.90
7004;DHT22;3542;48.812;9.146;2023-03-26T05:49:57;8.70;99.90
7004;DHT22;3542;48.812;9.146;2023-03-26T05:52:22;8.70;99.90
7004;DHT22;3542;48.812;9.146;2023-03-26T05:54:48;8.70;99.90
7004;DHT22;3542;48.812;9.146;2023-03-26T05:57:13;8.70;99.90
7004;DHT22;3542;48.812;9.146;2023-03-26T05:59:39;8.80;99.90
7004;DHT22;3542;48.812;9.146;2023-03-26T06:02:06;8.80;99.90
7004;DHT22;3542;48.812;9.146;2023-03-26T06:04:33;8.80;99.90
7004;DHT22;3542;48.812;9.146;2023-03-26T06:06:58;8.80;99.90
7004;DHT22;3542;48.812;9.146;2023-03-26T06:09:24;8.80;99.90
7004;DHT22;3542;48.812;9.146;2023-03-26T06:11:50;8.80;99.90
7004;DHT22;3542;48.812;9.146;2023-03-26T06:14:15;8.70;99.90
7004;DHT22;3542;48.812;9.146;2023-03-26T06:16:44;8.70;99.90
7004;DHT22;3542;48.812;9.146;2023-03-26T06:19:09;8.70;99.90
7004;DHT22;3542;48.812;9.146;2023-03-26T06:21:35;8.70;99.90
7004;DHT22;3542;48.812;9.146;2023-03-26T06:24:01;8.70;99.90
7004;DHT22;3542;48.812;9.146;2023-03-26T06:26:26;8.80;99.90
7004;DHT22;3542;48.812;9.146;2023-03-26T06:28:52;8.80;99.90
7004;DHT22;3542;48.812;9.146;2023-03-26T06:31:17;8.90;99.90
7004;DHT22;3542;48.812;9.146;2023-03-26T06:33:45;8.90;99.90
7004;DHT22;3542;48.812;9.146;2023-03-26T06:36:11;9.00;99.90
7004;DHT22;3542;48.812;9.146;2023-03-26T06:38:36;9.00;99.90
7004;DHT22;3542;48.812;9.146;2023-03-26T06:41:03;9.10;99.90
7004;DHT22;3542;48.812;9.146;2023-03-26T06:43:32;9.10;99.90
7004;DHT22;3542;48.812;9.146;2023-03-26T06:45:59;9.00;99.90
7004;DHT22;3542;48.812;9.146;2023-03-26T06:48:25;9.00;99.90
7004;DHT22;3542;48.812;9.146;2023-03-26T06:50:50;9.10;99.90
7004;DHT22;3542;48.812;9.146;2023-03-26T06:53:16;9.10;99.90
7004;DHT22;3542;48.812;9.146;2023-03-26T06:55:41;9.10;99.90
7004;DHT22;3542;48.812;9.146;2023-03-26T06:58:10;9.10;99.90
7004;DHT22;3542;48.812;9.146;2023-03-26T07:00:36;9.00;99.90
7004;DHT22;3542;48.812;9.146;2023-03-26T07:03:03;9.10;99.90
7004;DHT22;3542;48.812;9.146;2023-03-26T07:05:28;9.10;99.90
7004;DHT22;3542;48.812;9.146;2023-03-26T07:07:54;9.10;99.90
7004;DHT22;3542;48.812;9.146;2023-03-26T07:10:20;9.10;99.90
7004;DHT22;3542;48.812;9.146;2023-03-26T07:12:45;9.10;99.90
7004;DHT22;3542;48.812;9.146;2023-03-26T07:15:12;9.10;99.90
7004;DHT22;3542;48.812;9.146;2023-03-26T07:17:40;9.20;99.90
7004;DHT22;3542;48.812;9.146;2023-03-26T07:20:07;9.20;99.90
7004;DHT22;3542;48.812;9.146;2023-03-26T07:22:34;9.20;99.90
7004;DHT22;3542;48.812;9.146;2023-03-26T07:25:00;9.20;99.90
7004;DHT22;3542;48.812;9.146;2023-03-26T07:36:05;9.10;99.90
7004;DHT22;3542;48.812;9.146;2023-03-26T07:38:45;9.00;99.90
7004;DHT22;3542;48.812;9.146;2023-03-26T07:41:23;9.00;99.90
7004;DHT22;3542;48.812;9.146;2023-03-26T07:46:32;8.80;99.90
7004;DHT22;3542;48.812;9.146;2023-03-26T07:49:00;8.80;99.90
7004;DHT22;3542;48.812;9.146;2023-03-26T07:51:27;8.70;99.90
7004;DHT22;3542;48.812;9.146;2023-03-26T07:53:55;8.70;99.90
7004;DHT22;3542;48.812;9.146;2023-03-26T07:56:37;8.60;99.90
7004;DHT22;3542;48.812;9.146;2023-03-26T07:59:14;8.60;99.90
7004;DHT22;3542;48.812;9.146;2023-03-26T08:07:27;8.40;99.90
7004;DHT22;3542;48.812;9.146;2023-03-26T08:10:02;8.30;99.90
7004;DHT22;3542;48.812;9.146;2023-03-26T08:25:49;8.10;99.90
7004;DHT22;3542;48.812;9.146;2023-03-26T08:28:35;8.10;99.90
7004;DHT22;3542;48.812;9.146;2023-03-26T08:31:04;8.10;99.90
7004;DHT22;3542;48.812;9.146;2023-03-26T08:33:30;8.10;99.90
7004;DHT22;3542;48.812;9.146;2023-03-26T08:35:56;8.10;99.90
7004;DHT22;3542;48.812;9.146;2023-03-26T08:38:22;8.10;99.90
7004;DHT22;3542;48.812;9.146;2023-03-26T08:43:54;8.20;99.90
7004;DHT22;3542;48.812;9.146;2023-03-26T08:49:02;8.30;99.90
7004;DHT22;3542;48.812;9.146;2023-03-26T09:01:02;8.60;99.90
7004;DHT22;3542;48.812;9.146;2023-03-26T09:23:14;9.70;99.90
7004;DHT22;3542;48.812;9.146;2023-03-26T09:53:18;12.20;99.90
7004;DHT22;3542;48.812;9.146;2023-03-26T09:56:01;12.00;99.90
7004;DHT22;3542;48.812;9.146;2023-03-26T09:58:48;11.70;99.90
7004;DHT22;3542;48.812;9.146;2023-03-26T10:04:35;12.10;99.90
7004;DHT22;3542;48.812;9.146;2023-03-26T10:10:02;12.50;99.90
7004;DHT22;3542;48.812;9.146;2023-03-26T10:12:50;12.60;99.90
7004;DHT22;3542;48.812;9.146;2023-03-26T10:18:18;13.80;99.90
7004;DHT22;3542;48.812;9.146;2023-03-26T10:26:47;15.50;99.90
7004;DHT22;3542;48.812;9.146;2023-03-26T10:32:21;16.30;99.90
7004;DHT22;3542;48.812;9.146;2023-03-26T10:54:27;18.20;99.90
7004;DHT22;3542;48.812;9.146;2023-03-26T10:56:54;17.30;99.90
7004;DHT22;3542;48.812;9.146;2023-03-26T10:59:23;16.70;99.90
7004;DHT22;3542;48.812;9.146;2023-03-26T11:02:04;16.20;99.90
7004;DHT22;3542;48.812;9.146;2023-03-26T11:05:01;15.70;99.90
7004;DHT22;3542;48.812;9.146;2023-03-26T11:07:42;15.00;99.90
7004;DHT22;3542;48.812;9.146;2023-03-26T11:10:16;14.60;99.90
7004;DHT22;3542;48.812;9.146;2023-03-26T11:13:01;14.30;99.90
7004;DHT22;3542;48.812;9.146;2023-03-26T11:15:45;14.10;99.90
7004;DHT22;3542;48.812;9.146;2023-03-26T11:18:35;14.00;99.90
7004;DHT22;3542;48.812;9.146;2023-03-26T11:21:33;14.00;99.90
7004;DHT22;3542;48.812;9.146;2023-03-26T11:27:03;15.30;99.90
7004;DHT22;3542;48.812;9.146;2023-03-26T11:29:58;16.10;99.90
7004;DHT22;3542;48.812;9.146;2023-03-26T11:33:14;16.70;99.90
7004;DHT22;3542;48.812;9.146;2023-03-26T11:35:34;16.90;99.90
7004;DHT22;3542;48.812;9.146;2023-03-26T11:41:02;16.40;99.90
7004;DHT22;3542;48.812;9.146;2023-03-26T11:43:32;16.80;99.90
7004;DHT22;3542;48.812;9.146;2023-03-26T11:46:05;17.00;99.90
7004;DHT22;3542;48.812;9.146;2023-03-26T11:48:34;16.60;99.90
7004;DHT22;3542;48.812;9.146;2023-03-26T11:51:15;16.10;99.90
7004;DHT22;3542;48.812;9.146;2023-03-26T11:53:42;15.50;99.90
7004;DHT22;3542;48.812;9.146;2023-03-26T11:58:50;14.90;99.90
7004;DHT22;3542;48.812;9.146;2023-03-26T12:01:27;15.00;99.90
7004;DHT22;3542;48.812;9.146;2023-03-26T12:03:56;15.30;99.90
7004;DHT22;3542;48.812;9.146;2023-03-26T12:06:24;15.30;99.90
7004;DHT22;3542;48.812;9.146;2023-03-26T12:08:51;15.30;99.90
7004;DHT22;3542;48.812;9.146;2023-03-26T12:11:19;14.90;99.90
7004;DHT22;3542;48.812;9.146;2023-03-26T12:13:57;14.60;99.90
7004;DHT22;3542;48.812;9.146;2023-03-26T12:16:24;14.10;99.90
7004;DHT22;3542;48.812;9.146;2023-03-26T12:19:00;13.70;99.90
7004;DHT22;3542;48.812;9.146;2023-03-26T12:21:26;13.50;99.90
7004;DHT22;3542;48.812;9.146;2023-03-26T12:24:04;13.90;99.90
7004;DHT22;3542;48.812;9.146;2023-03-26T12:26:41;13.80;99.90
7004;DHT22;3542;48.812;9.146;2023-03-26T12:31:53;13.20;99.90
7004;DHT22;3542;48.812;9.146;2023-03-26T12:34:21;13.30;99.90
7004;DHT22;3542;48.812;9.146;2023-03-26T12:36:54;13.30;99.90
7004;DHT22;3542;48.812;9.146;2023-03-26T12:39:44;13.30;99.90
7004;DHT22;3542;48.812;9.146;2023-03-26T12:42:28;13.10;99.90
7004;DHT22;3542;48.812;9.146;2023-03-26T12:44:55;12.90;99.90
7004;DHT22;3542;48.812;9.146;2023-03-26T12:47:27;12.90;99.90
7004;DHT22;3542;48.812;9.146;2023-03-26T12:49:54;12.70;99.90
7004;DHT22;3542;48.812;9.146;2023-03-26T12:55:54;13.10;99.90
7004;DHT22;3542;48.812;9.146;2023-03-26T13:01:15;13.70;99.90
7004;DHT22;3542;48.812;9.146;2023-03-26T13:06:44;13.70;99.90
7004;DHT22;3542;48.812;9.146;2023-03-26T13:09:45;13.60;99.90
7004;DHT22;3542;48.812;9.146;2023-03-26T13:17:41;13.40;99.90
7004;DHT22;3542;48.812;9.146;2023-03-26T13:20:46;13.40;99.90
7004;DHT22;3542;48.812;9.146;2023-03-26T13:23:38;13.60;99.90
7004;DHT22;3542;48.812;9.146;2023-03-26T13:29:07;13.70;99.90
7004;DHT22;3542;48.812;9.146;2023-03-26T13:32:05;13.70;99.90
7004;DHT22;3542;48.812;9.146;2023-03-26T13:40:48;14.30;99.90
7004;DHT22;3542;48.812;9.146;2023-03-26T13:46:33;14.40;99.90
7004;DHT22;3542;48.812;9.146;2023-03-26T13:51:57;13.90;99.90
7004;DHT22;3542;48.812;9.146;2023-03-26T13:59:53;13.80;99.90
7004;DHT22;3542;48.812;9.146;2023-03-26T14:02:33;13.80;99.90
7004;DHT22;3542;48.812;9.146;2023-03-26T14:05:06;13.80;99.90
7004;DHT22;3542;48.812;9.146;2023-03-26T14:07:43;13.80;99.90
7004;DHT22;3542;48.812;9.146;2023-03-26T14:10:14;13.80;99.90
7004;DHT22;3542;48.812;9.146;2023-03-26T14:15:19;13.80;99.90
7004;DHT22;3542;48.812;9.146;2023-03-26T14:23:55;13.80;99.90
7004;DHT22;3542;48.812;9.146;2023-03-26T14:34:57;12.50;99.90
7004;DHT22;3542;48.812;9.146;2023-03-26T14:43:24;11.00;99.90
7004;DHT22;3542;48.812;9.146;2023-03-26T14:48:47;10.10;99.90
7004;DHT22;3542;48.812;9.146;2023-03-26T14:51:27;9.80;99.90
7004;DHT22;3542;48.812;9.146;2023-03-26T14:54:08;9.50;99.90
7004;DHT22;3542;48.812;9.146;2023-03-26T15:20:54;9.60;99.90
7004;DHT22;3542;48.812;9.146;2023-03-26T15:29:56;9.20;99.90
7004;DHT22;3542;48.812;9.146;2023-03-26T15:38:41;8.70;99.90
7004;DHT22;3542;48.812;9.146;2023-03-26T15:41:14;8.60;99.90
7004;DHT22;3542;48.812;9.146;2023-03-26T15:49:09;8.30;99.90
7004;DHT22;3542;48.812;9.146;2023-03-26T15:54:27;8.20;99.90
7004;DHT22;3542;48.812;9.146;2023-03-26T15:59:36;8.10;99.90
7004;DHT22;3542;48.812;9.146;2023-03-26T16:09:02;8.10;99.90
7004;DHT22;3542;48.812;9.146;2023-03-26T16:11:01;8.10;99.90
7004;DHT22;3542;48.812;9.146;2023-03-26T16:28:58;8.00;99.90
7004;DHT22;3542;48.812;9.146;2023-03-26T16:31:30;8.10;99.90
7004;DHT22;3542;48.812;9.146;2023-03-26T16:34:19;8.10;99.90
7004;DHT22;3542;48.812;9.146;2023-03-26T16:36:48;8.10;99.90
7004;DHT22;3542;48.812;9.146;2023-03-26T16:39:45;8.10;99.90
7004;DHT22;3542;48.812;9.146;2023-03-26T16:42:21;8.10;99.90
7004;DHT22;3542;48.812;9.146;2023-03-26T16:47:38;8.00;99.90
7004;DHT22;3542;48.812;9.146;2023-03-26T16:50:22;7.90;99.90
7004;DHT22;3542;48.812;9.146;2023-03-26T16:56:00;7.90;99.90
7004;DHT22;3542;48.812;9.146;2023-03-26T17:03:59;7.90;99.90
7004;DHT22;3542;48.812;9.146;2023-03-26T17:25:59;7.80;99.90
7004;DHT22;3542;48.812;9.146;2023-03-26T17:28:41;7.80;99.90
7004;DHT22;3542;48.812;9.146;2023-03-26T17:33:45;7.70;99.90
7004;DHT22;3542;48.812;9.146;2023-03-26T17:41:47;7.70;99.90
7004;DHT22;3542;48.812;9.146;2023-03-26T17:43:59;7.70;99.90
7004;DHT22;3542;48.812;9.146;2023-03-26T17:46:38;7.60;99.90
7004;DHT22;3542;48.812;9.146;2023-03-26T17:54:33;7.60;99.90
7004;DHT22;3542;48.812;9.146;2023-03-26T17:59:35;7.60;99.90
7004;DHT22;3542;48.812;9.146;2023-03-26T18:02:03;7.60;99.90
7004;DHT22;3542;48.812;9.146;2023-03-26T18:04:36;7.60;99.90
7004;DHT22;3542;48.812;9.146;2023-03-26T18:17:46;7.50;99.90
7004;DHT22;3542;48.812;9.146;2023-03-26T18:20:20;7.40;99.90
7004;DHT22;3542;48.812;9.146;2023-03-26T18:22:48;7.40;99.90
7004;DHT22;3542;48.812;9.146;2023-03-26T18:25:23;7.40;99.90
7004;DHT22;3542;48.812;9.146;2023-03-26T18:27:50;7.30;99.90
7004;DHT22;3542;48.812;9.146;2023-03-26T18:30:18;7.30;99.90
7004;DHT22;3542;48.812;9.146;2023-03-26T18:33:03;7.30;99.90
7004;DHT22;3542;48.812;9.146;2023-03-26T18:35:45;7.30;99.90
7004;DHT22;3542;48.812;9.146;2023-03-26T18:38:19;7.30;99.90
7004;DHT22;3542;48.812;9.146;2023-03-26T18:40:46;7.30;99.90
7004;DHT22;3542;48.812;9.146;2023-03-26T18:43:17;7.30;99.90
7004;DHT22;3542;48.812;9.146;2023-03-26T18:45:45;7.30;99.90
7004;DHT22;3542;48.812;9.146;2023-03-26T18:48:22;7.30;99.90
7004;DHT22;3542;48.812;9.146;2023-03-26T18:51:05;7.30;99.90
7004;DHT22;3542;48.812;9.146;2023-03-26T18:53:49;7.20;99.90
7004;DHT22;3542;48.812;9.146;2023-03-26T18:58:57;7.20;99.90
7004;DHT22;3542;48.812;9.146;2023-03-26T19:01:25;7.20;99.90
7004;DHT22;3542;48.812;9.146;2023-03-26T19:03:56;7.20;99.90
7004;DHT22;3542;48.812;9.146;2023-03-26T19:06:23;7.20;99.90
7004;DHT22;3542;48.812;9.146;2023-03-26T19:08:50;7.10;99.90
7004;DHT22;3542;48.812;9.146;2023-03-26T19:11:18;7.10;99.90
7004;DHT22;3542;48.812;9.146;2023-03-26T19:13:56;7.10;99.90
7004;DHT22;3542;48.812;9.146;2023-03-26T19:16:25;7.10;99.90
7004;DHT22;3542;48.812;9.146;2023-03-26T19:18:53;7.10;99.90
7004;DHT22;3542;48.812;9.146;2023-03-26T19:21:20;7.10;99.90
7004;DHT22;3542;48.812;9.146;2023-03-26T19:23:49;7.10;99.90
7004;DHT22;3542;48.812;9.146;2023-03-26T19:26:15;7.20;99.90
7004;DHT22;3542;48.812;9.146;2023-03-26T19:28:45;7.10;99.90
7004;DHT22;3542;48.812;9.146;2023-03-26T19:33:42;7.20;99.90
7004;DHT22;3542;48.812;9.146;2023-03-26T19:36:19;7.10;99.90
7004;DHT22;3542;48.812;9.146;2023-03-26T19:41:29;7.10;99.90
7004;DHT22;3542;48.812;9.146;2023-03-26T19:43:59;7.10;99.90
7004;DHT22;3542;48.812;9.146;2023-03-26T19:46:27;7.10;99.90
7004;DHT22;3542;48.812;9.146;2023-03-26T19:48:57;7.00;99.90
7004;DHT22;3542;48.812;9.146;2023-03-26T19:51:35;7.00;99.90
7004;DHT22;3542;48.812;9.146;2023-03-26T19:54:03;7.00;99.90
7004;DHT22;3542;48.812;9.146;2023-03-26T19:56:36;6.90;99.90
7004;DHT22;3542;48.812;9.146;2023-03-26T19:59:01;6.80;99.90
7004;DHT22;3542;48.812;9.146;2023-03-26T20:01:28;6.80;99.90
7004;DHT22;3542;48.812;9.146;2023-03-26T20:03:57;6.80;99.90
7004;DHT22;3542;48.812;9.146;2023-03-26T20:06:25;6.80;99.90
7004;DHT22;3542;48.812;9.146;2023-03-26T20:08:53;6.70;99.90
7004;DHT22;3542;48.812;9.146;2023-03-26T20:11:32;6.70;99.90
7004;DHT22;3542;48.812;9.146;2023-03-26T20:13:59;6.70;99.90
7004;DHT22;3542;48.812;9.146;2023-03-26T20:16:29;6.70;99.90
7004;DHT22;3542;48.812;9.146;2023-03-26T20:18:55;6.70;99.90
7004;DHT22;3542;48.812;9.146;2023-03-26T20:21:22;6.70;99.90
7004;DHT22;3542;48.812;9.146;2023-03-26T20:23:48;6.60;99.90
7004;DHT22;3542;48.812;9.146;2023-03-26T20:26:18;6.60;99.90
7004;DHT22;3542;48.812;9.146;2023-03-26T20:28:44;6.60;99.90
7004;DHT22;3542;48.812;9.146;2023-03-26T20:31:14;6.60;99.90
7004;DHT22;3542;48.812;9.146;2023-03-26T20:33:41;6.60;99.90
7004;DHT22;3542;48.812;9.146;2023-03-26T20:36:13;6.60;99.90
7004;DHT22;3542;48.812;9.146;2023-03-26T20:38:40;6.60;99.90
7004;DHT22;3542;48.812;9.146;2023-03-26T20:41:11;6.50;99.90
7004;DHT22;3542;48.812;9.146;2023-03-26T20:43:37;6.60;99.90
7004;DHT22;3542;48.812;9.146;2023-03-26T20:46:02;6.50;99.90
7004;DHT22;3542;48.812;9.146;2023-03-26T20:48:28;6.50;99.90
7004;DHT22;3542;48.812;9.146;2023-03-26T20:50:54;6.50;99.90
7004;DHT22;3542;48.812;9.146;2023-03-26T20:53:22;6.40;99.90
7004;DHT22;3542;48.812;9.146;2023-03-26T20:55:49;6.40;99.90
7004;DHT22;3542;48.812;9.146;2023-03-26T20:58:17;6.40;99.90
7004;DHT22;3542;48.812;9.146;2023-03-26T21:00:47;6.40;99.90
7004;DHT22;3542;48.812;9.146;2023-03-26T21:03:15;6.40;99.90
7004;DHT22;3542;48.812;9.146;2023-03-26T21:05:41;6.40;99.90
7004;DHT22;3542;48.812;9.146;2023-03-26T21:08:16;6.40;99.90
7004;DHT22;3542;48.812;9.146;2023-03-26T21:10:43;6.50;99.90
7004;DHT22;3542;48.812;9.146;2023-03-26T21:13:35;6.50;99.90
7004;DHT22;3542;48.812;9.146;2023-03-26T21:16:01;6.50;99.90
7004;DHT22;3542;48.812;9.146;2023-03-26T21:18:27;6.50;99.90
7004;DHT22;3542;48.812;9.146;2023-03-26T21:21:06;6.60;99.90
7004;DHT22;3542;48.812;9.146;2023-03-26T21:23:48;6.60;99.90
7004;DHT22;3542;48.812;9.146;2023-03-26T21:29:17;6.60;99.90
7004;DHT22;3542;48.812;9.146;2023-03-26T21:31:43;6.60;99.90
7004;DHT22;3542;48.812;9.146;2023-03-26T21:34:09;6.60;99.90
7004;DHT22;3542;48.812;9.146;2023-03-26T21:36:37;6.60;99.90
7004;DHT22;3542;48.812;9.146;2023-03-26T21:39:05;6.60;99.90
7004;DHT22;3542;48.812;9.146;2023-03-26T21:41:49;6.60;99.90
7004;DHT22;3542;48.812;9.146;2023-03-26T21:44:16;6.60;99.90
7004;DHT22;3542;48.812;9.146;2023-03-26T21:46:45;6.60;99.90
7004;DHT22;3542;48.812;9.146;2023-03-26T21:49:13;6.50;99.90
7004;DHT22;3542;48.812;9.146;2023-03-26T21:51:39;6.50;99.90
7004;DHT22;3542;48.812;9.146;2023-03-26T21:54:20;6.50;99.90
7004;DHT22;3542;48.812;9.146;2023-03-26T22:00:11;6.50;99.90
7004;DHT22;3542;48.812;9.146;2023-03-26T22:05:17;6.50;99.90
7004;DHT22;3542;48.812;9.146;2023-03-26T22:07:53;6.50;99.90
7004;DHT22;3542;48.812;9.146;2023-03-26T22:10:20;6.50;99.90
7004;DHT22;3542;48.812;9.146;2023-03-26T22:12:46;6.40;99.90
7004;DHT22;3542;48.812;9.146;2023-03-26T22:15:12;6.40;99.90
7004;DHT22;3542;48.812;9.146;2023-03-26T22:17:39;6.40;99.90
7004;DHT22;3542;48.812;9.146;2023-03-26T22:20:10;6.40;99.90
7004;DHT22;3542;48.812;9.146;2023-03-26T22:22:37;6.40;99.90
7004;DHT22;3542;48.812;9.146;2023-03-26T22:25:03;6.40;99.90
7004;DHT22;3542;48.812;9.146;2023-03-26T22:27:28;6.40;99.90
7004;DHT22;3542;48.812;9.146;2023-03-26T22:29:57;6.40;99.90
7004;DHT22;3542;48.812;9.146;2023-03-26T22:32:23;6.40;99.90